Strona główna
METAR-TAF:

METAR-TAF

Lotnisko :

Troyes, Francja

Szerokość geograficzna: 48-20N, Długość geograficzna: 004-01E, wysokość: 118 m

Aktualna obserwacja pogody

Raport powstał 38 minut temu, godzina 19:00 UTC
Wiatr 14 kt od zachodnio-południowy zachód
Temperatura 9°C
Wilgotność 87%
Ciśnienie 1009 hPa
Widzialność 10 km lub więcej
Brak chmur poniżej 1500 m i brak chmur cumulonimbus

METAR: LFQB 081900Z AUTO 24014KT CAVOK 09/07 Q1009

czas: 20:38 (19:38 UTC)


TAF: brakujący

Obserwacja i prognoza pogody dla ponad 4000 lotnisk (raport METAR i TAF).

Dostępne stacje oznaczono żółtymi i czerwonymi punktami na mapie.

Najedź kursorem aby zobaczyć nazwę stacji.

Kliknij aby zobaczyć obserwacje i prognozy pogody.

Aby zmienić mapę: kliknij na zielony przycisk z czarnym krzyżykiem, aby powiększyć; na zielony przycisk z myślnikiem, aby pomniejszyć; na zielone strzałki, aby przejść do map sąsiednich.


METAR-TAF: